sensor_id;sensor_type;location;lat;lon;timestamp;pressure;altitude;pressure_sealevel;temperature;humidity
29045;BME280;16133;49.486;12.176;2022-09-09T00:04:26;97002.53;;;9.68;100.00
29045;BME280;16133;49.486;12.176;2022-09-09T00:09:58;97013.22;;;9.60;100.00
29045;BME280;16133;49.486;12.176;2022-09-09T00:15:20;97008.66;;;9.54;100.00
29045;BME280;16133;49.486;12.176;2022-09-09T00:18:00;97004.38;;;9.53;100.00
29045;BME280;16133;49.486;12.176;2022-09-09T00:20:52;96979.06;;;9.36;100.00
29045;BME280;16133;49.486;12.176;2022-09-09T00:25:57;96994.16;;;9.50;100.00
29045;BME280;16133;49.486;12.176;2022-09-09T00:28:26;96983.09;;;9.46;100.00
29045;BME280;16133;49.486;12.176;2022-09-09T00:30:52;96980.78;;;9.43;100.00
29045;BME280;16133;49.486;12.176;2022-09-09T00:33:23;96984.25;;;9.44;100.00
29045;BME280;16133;49.486;12.176;2022-09-09T00:35:52;96975.25;;;9.38;100.00
29045;BME280;16133;49.486;12.176;2022-09-09T00:38:25;96982.97;;;9.40;100.00
29045;BME280;16133;49.486;12.176;2022-09-09T00:41:17;96985.47;;;9.41;100.00
29045;BME280;16133;49.486;12.176;2022-09-09T00:43:49;96978.72;;;9.39;100.00
29045;BME280;16133;49.486;12.176;2022-09-09T00:51:46;96979.34;;;9.26;100.00
29045;BME280;16133;49.486;12.176;2022-09-09T00:57:28;96981.69;;;9.21;100.00
29045;BME280;16133;49.486;12.176;2022-09-09T01:02:53;96990.84;;;9.19;100.00
29045;BME280;16133;49.486;12.176;2022-09-09T01:05:36;96990.19;;;9.17;100.00
29045;BME280;16133;49.486;12.176;2022-09-09T01:08:14;96992.19;;;9.15;100.00
29045;BME280;16133;49.486;12.176;2022-09-09T01:10:50;96990.53;;;9.13;100.00
29045;BME280;16133;49.486;12.176;2022-09-09T01:13:25;96987.28;;;9.11;100.00
29045;BME280;16133;49.486;12.176;2022-09-09T01:15:51;96997.84;;;9.11;100.00
29045;BME280;16133;49.486;12.176;2022-09-09T01:18:21;96994.56;;;9.09;100.00
29045;BME280;16133;49.486;12.176;2022-09-09T01:23:42;96997.41;;;9.08;100.00
29045;BME280;16133;49.486;12.176;2022-09-09T01:26:24;96989.00;;;9.04;100.00
29045;BME280;16133;49.486;12.176;2022-09-09T01:28:52;96992.44;;;9.05;100.00
29045;BME280;16133;49.486;12.176;2022-09-09T01:31:31;96995.28;;;9.03;100.00
29045;BME280;16133;49.486;12.176;2022-09-09T01:33:57;96990.16;;;9.02;100.00
29045;BME280;16133;49.486;12.176;2022-09-09T01:36:38;96992.81;;;9.02;100.00
29045;BME280;16133;49.486;12.176;2022-09-09T01:39:06;96958.66;;;8.78;100.00
29045;BME280;16133;49.486;12.176;2022-09-09T01:41:31;96994.00;;;8.99;100.00
29045;BME280;16133;49.486;12.176;2022-09-09T01:43:57;96986.06;;;8.99;100.00
29045;BME280;16133;49.486;12.176;2022-09-09T01:46:22;96985.41;;;8.97;100.00
29045;BME280;16133;49.486;12.176;2022-09-09T01:48:50;96983.41;;;8.99;100.00
29045;BME280;16133;49.486;12.176;2022-09-09T01:51:19;96980.56;;;9.01;100.00
29045;BME280;16133;49.486;12.176;2022-09-09T01:53:45;96987.16;;;9.05;100.00
29045;BME280;16133;49.486;12.176;2022-09-09T02:04:49;96968.28;;;9.08;100.00
29045;BME280;16133;49.486;12.176;2022-09-09T02:09:44;96964.06;;;9.13;100.00
29045;BME280;16133;49.486;12.176;2022-09-09T02:12:14;96956.78;;;9.16;100.00
29045;BME280;16133;49.486;12.176;2022-09-09T02:14:48;96932.16;;;9.00;100.00
29045;BME280;16133;49.486;12.176;2022-09-09T02:17:27;96959.69;;;9.21;100.00
29045;BME280;16133;49.486;12.176;2022-09-09T02:20:07;96953.25;;;9.23;100.00
29045;BME280;16133;49.486;12.176;2022-09-09T02:22:33;96954.06;;;9.24;100.00
29045;BME280;16133;49.486;12.176;2022-09-09T02:25:01;96950.75;;;9.22;100.00
29045;BME280;16133;49.486;12.176;2022-09-09T02:27:27;96953.78;;;9.19;100.00
29045;BME280;16133;49.486;12.176;2022-09-09T02:29:54;96955.59;;;9.18;100.00
29045;BME280;16133;49.486;12.176;2022-09-09T02:32:23;96958.41;;;9.17;100.00
29045;BME280;16133;49.486;12.176;2022-09-09T02:35:02;96964.06;;;9.13;100.00
29045;BME280;16133;49.486;12.176;2022-09-09T02:37:36;96953.88;;;9.10;100.00
29045;BME280;16133;49.486;12.176;2022-09-09T02:40:05;96929.66;;;8.84;100.00
29045;BME280;16133;49.486;12.176;2022-09-09T02:42:38;96970.94;;;9.08;100.00
29045;BME280;16133;49.486;12.176;2022-09-09T02:45:04;96972.09;;;9.05;100.00
29045;BME280;16133;49.486;12.176;2022-09-09T02:47:35;96972.47;;;9.02;100.00
29045;BME280;16133;49.486;12.176;2022-09-09T02:50:26;96972.84;;;8.99;100.00
29045;BME280;16133;49.486;12.176;2022-09-09T02:55:45;96979.28;;;8.97;100.00
29045;BME280;16133;49.486;12.176;2022-09-09T02:58:15;96969.91;;;8.94;100.00
29045;BME280;16133;49.486;12.176;2022-09-09T03:00:49;96979.66;;;8.94;100.00
29045;BME280;16133;49.486;12.176;2022-09-09T03:03:16;96972.53;;;8.94;100.00
29045;BME280;16133;49.486;12.176;2022-09-09T03:05:43;96974.00;;;8.97;100.00
29045;BME280;16133;49.486;12.176;2022-09-09T03:08:09;96961.06;;;9.02;100.00
29045;BME280;16133;49.486;12.176;2022-09-09T03:10:35;96961.50;;;9.05;100.00
29045;BME280;16133;49.486;12.176;2022-09-09T03:13:02;96955.50;;;9.11;100.00
29045;BME280;16133;49.486;12.176;2022-09-09T03:15:29;96951.13;;;9.19;100.00
29045;BME280;16133;49.486;12.176;2022-09-09T03:17:56;96940.81;;;9.24;100.00
29045;BME280;16133;49.486;12.176;2022-09-09T03:20:27;96931.31;;;9.29;100.00
29045;BME280;16133;49.486;12.176;2022-09-09T03:22:53;96933.41;;;9.34;100.00
29045;BME280;16133;49.486;12.176;2022-09-09T03:25:19;96919.44;;;9.40;100.00
29045;BME280;16133;49.486;12.176;2022-09-09T03:27:45;96923.63;;;9.49;100.00
29045;BME280;16133;49.486;12.176;2022-09-09T03:30:11;96911.28;;;9.56;100.00
29045;BME280;16133;49.486;12.176;2022-09-09T03:32:36;96899.94;;;9.62;100.00
29045;BME280;16133;49.486;12.176;2022-09-09T03:35:02;96900.88;;;9.69;100.00
29045;BME280;16133;49.486;12.176;2022-09-09T03:37:28;96892.34;;;9.74;100.00
29045;BME280;16133;49.486;12.176;2022-09-09T03:39:53;96893.16;;;9.74;100.00
29045;BME280;16133;49.486;12.176;2022-09-09T03:42:22;96896.84;;;9.73;100.00
29045;BME280;16133;49.486;12.176;2022-09-09T03:44:47;96894.81;;;9.75;100.00
29045;BME280;16133;49.486;12.176;2022-09-09T03:47:16;96889.13;;;9.78;100.00
29045;BME280;16133;49.486;12.176;2022-09-09T03:49:41;96896.53;;;9.83;100.00
29045;BME280;16133;49.486;12.176;2022-09-09T03:52:08;96898.63;;;9.87;100.00
29045;BME280;16133;49.486;12.176;2022-09-09T03:54:33;96900.34;;;9.95;100.00
29045;BME280;16133;49.486;12.176;2022-09-09T03:56:59;96894.91;;;10.03;100.00
29045;BME280;16133;49.486;12.176;2022-09-09T03:59:24;96890.06;;;10.06;100.00
29045;BME280;16133;49.486;12.176;2022-09-09T04:01:50;96900.44;;;10.08;100.00
29045;BME280;16133;49.486;12.176;2022-09-09T04:04:16;96893.91;;;10.04;100.00
29045;BME280;16133;49.486;12.176;2022-09-09T04:06:41;96899.94;;;9.98;100.00
29045;BME280;16133;49.486;12.176;2022-09-09T04:09:07;96904.63;;;9.96;100.00
29045;BME280;16133;49.486;12.176;2022-09-09T04:11:32;96907.06;;;9.97;100.00
29045;BME280;16133;49.486;12.176;2022-09-09T04:13:58;96911.00;;;10.01;100.00
29045;BME280;16133;49.486;12.176;2022-09-09T04:16:23;96910.25;;;10.07;100.00
29045;BME280;16133;49.486;12.176;2022-09-09T04:18:49;96907.22;;;10.11;100.00
29045;BME280;16133;49.486;12.176;2022-09-09T04:21:14;96906.31;;;10.18;100.00
29045;BME280;16133;49.486;12.176;2022-09-09T04:23:41;96900.69;;;10.28;100.00
29045;BME280;16133;49.486;12.176;2022-09-09T04:26:07;96895.69;;;10.39;100.00
29045;BME280;16133;49.486;12.176;2022-09-09T04:28:34;96895.81;;;10.52;100.00
29045;BME280;16133;49.486;12.176;2022-09-09T04:31:08;96888.75;;;10.66;100.00
29045;BME280;16133;49.486;12.176;2022-09-09T04:33:35;96871.69;;;10.75;100.00
29045;BME280;16133;49.486;12.176;2022-09-09T04:36:00;96870.13;;;10.81;100.00
29045;BME280;16133;49.486;12.176;2022-09-09T04:38:26;96868.50;;;10.86;100.00
29045;BME280;16133;49.486;12.176;2022-09-09T04:40:51;96862.63;;;10.91;100.00
29045;BME280;16133;49.486;12.176;2022-09-09T04:43:19;96862.41;;;10.92;100.00
29045;BME280;16133;49.486;12.176;2022-09-09T04:45:49;96857.31;;;10.91;100.00
29045;BME280;16133;49.486;12.176;2022-09-09T04:48:16;96872.25;;;10.98;100.00
29045;BME280;16133;49.486;12.176;2022-09-09T04:50:42;96866.16;;;11.04;100.00
29045;BME280;16133;49.486;12.176;2022-09-09T04:53:07;96870.13;;;11.15;100.00
29045;BME280;16133;49.486;12.176;2022-09-09T04:55:34;96860.75;;;11.26;100.00
29045;BME280;16133;49.486;12.176;2022-09-09T04:58:07;96853.66;;;11.33;100.00
29045;BME280;16133;49.486;12.176;2022-09-09T05:00:34;96852.84;;;11.39;100.00
29045;BME280;16133;49.486;12.176;2022-09-09T05:03:07;96852.88;;;11.45;100.00
29045;BME280;16133;49.486;12.176;2022-09-09T05:05:34;96852.72;;;11.54;100.00
29045;BME280;16133;49.486;12.176;2022-09-09T05:08:09;96850.50;;;11.64;100.00
29045;BME280;16133;49.486;12.176;2022-09-09T05:10:37;96853.00;;;11.72;100.00
29045;BME280;16133;49.486;12.176;2022-09-09T05:13:03;96853.03;;;11.85;100.00
29045;BME280;16133;49.486;12.176;2022-09-09T05:15:29;96845.50;;;12.02;100.00
29045;BME280;16133;49.486;12.176;2022-09-09T05:18:01;96846.97;;;12.24;100.00
29045;BME280;16133;49.486;12.176;2022-09-09T05:20:27;96841.03;;;12.41;100.00
29045;BME280;16133;49.486;12.176;2022-09-09T05:22:54;96833.88;;;12.55;100.00
29045;BME280;16133;49.486;12.176;2022-09-09T05:25:20;96844.72;;;12.67;100.00
29045;BME280;16133;49.486;12.176;2022-09-09T05:27:46;96842.44;;;12.77;100.00
29045;BME280;16133;49.486;12.176;2022-09-09T05:30:12;96841.00;;;12.87;100.00
29045;BME280;16133;49.486;12.176;2022-09-09T05:32:37;96844.03;;;12.98;100.00
29045;BME280;16133;49.486;12.176;2022-09-09T05:35:03;96841.56;;;13.09;100.00
29045;BME280;16133;49.486;12.176;2022-09-09T05:37:30;96836.63;;;13.26;100.00
29045;BME280;16133;49.486;12.176;2022-09-09T05:39:56;96831.66;;;13.36;100.00
29045;BME280;16133;49.486;12.176;2022-09-09T05:42:21;96834.53;;;13.41;100.00
29045;BME280;16133;49.486;12.176;2022-09-09T05:44:46;96835.75;;;13.45;100.00
29045;BME280;16133;49.486;12.176;2022-09-09T05:47:12;96848.00;;;13.53;100.00
29045;BME280;16133;49.486;12.176;2022-09-09T05:49:37;96856.59;;;13.55;100.00
29045;BME280;16133;49.486;12.176;2022-09-09T05:52:03;96860.72;;;13.51;100.00
29045;BME280;16133;49.486;12.176;2022-09-09T05:54:29;96865.22;;;13.50;100.00
29045;BME280;16133;49.486;12.176;2022-09-09T05:56:54;96877.53;;;13.51;100.00
29045;BME280;16133;49.486;12.176;2022-09-09T05:59:19;96879.56;;;13.56;100.00
29045;BME280;16133;49.486;12.176;2022-09-09T06:01:45;96888.50;;;13.74;100.00
29045;BME280;16133;49.486;12.176;2022-09-09T06:04:12;96887.41;;;13.95;100.00
29045;BME280;16133;49.486;12.176;2022-09-09T06:06:38;96882.72;;;14.22;100.00
29045;BME280;16133;49.486;12.176;2022-09-09T06:09:06;96868.78;;;14.51;100.00
29045;BME280;16133;49.486;12.176;2022-09-09T06:11:36;96865.72;;;14.72;100.00
29045;BME280;16133;49.486;12.176;2022-09-09T06:14:02;96863.53;;;14.88;100.00
29045;BME280;16133;49.486;12.176;2022-09-09T06:16:28;96863.91;;;14.91;100.00
29045;BME280;16133;49.486;12.176;2022-09-09T06:18:55;96866.44;;;14.86;100.00
29045;BME280;16133;49.486;12.176;2022-09-09T06:21:35;96897.88;;;14.84;100.00
29045;BME280;16133;49.486;12.176;2022-09-09T06:24:02;96915.59;;;14.78;100.00
29045;BME280;16133;49.486;12.176;2022-09-09T06:26:33;96952.81;;;14.73;100.00
29045;BME280;16133;49.486;12.176;2022-09-09T06:28:59;97007.50;;;14.64;100.00
29045;BME280;16133;49.486;12.176;2022-09-09T06:31:29;97032.75;;;14.68;100.00
29045;BME280;16133;49.486;12.176;2022-09-09T06:33:56;97032.91;;;14.80;100.00
29045;BME280;16133;49.486;12.176;2022-09-09T06:36:23;97019.25;;;14.95;100.00
29045;BME280;16133;49.486;12.176;2022-09-09T06:38:49;96991.94;;;15.17;100.00
29045;BME280;16133;49.486;12.176;2022-09-09T06:41:16;96963.06;;;15.51;100.00
29045;BME280;16133;49.486;12.176;2022-09-09T06:43:42;96952.63;;;15.67;100.00
29045;BME280;16133;49.486;12.176;2022-09-09T06:46:12;96958.69;;;15.93;100.00
29045;BME280;16133;49.486;12.176;2022-09-09T06:48:41;96970.88;;;16.07;100.00
29045;BME280;16133;49.486;12.176;2022-09-09T06:51:09;97018.09;;;16.19;100.00
29045;BME280;16133;49.486;12.176;2022-09-09T06:53:37;97060.38;;;16.29;100.00
29045;BME280;16133;49.486;12.176;2022-09-09T06:56:22;97091.34;;;16.43;100.00
29045;BME280;16133;49.486;12.176;2022-09-09T06:58:49;97107.69;;;16.53;100.00
29045;BME280;16133;49.486;12.176;2022-09-09T07:01:23;97106.72;;;16.84;100.00
29045;BME280;16133;49.486;12.176;2022-09-09T07:03:51;97114.75;;;17.14;100.00
29045;BME280;16133;49.486;12.176;2022-09-09T07:06:22;97124.63;;;17.32;100.00
29045;BME280;16133;49.486;12.176;2022-09-09T07:08:59;97131.41;;;17.46;100.00
29045;BME280;16133;49.486;12.176;2022-09-09T07:11:30;97131.13;;;17.65;100.00
29045;BME280;16133;49.486;12.176;2022-09-09T07:13:57;97137.78;;;17.86;100.00
29045;BME280;16133;49.486;12.176;2022-09-09T07:16:24;97133.88;;;18.12;100.00
29045;BME280;16133;49.486;12.176;2022-09-09T07:18:50;97143.19;;;18.33;100.00
29045;BME280;16133;49.486;12.176;2022-09-09T07:21:16;97163.13;;;18.48;100.00
29045;BME280;16133;49.486;12.176;2022-09-09T07:23:42;97176.72;;;18.53;100.00
29045;BME280;16133;49.486;12.176;2022-09-09T07:28:35;97190.13;;;18.07;100.00
29045;BME280;16133;49.486;12.176;2022-09-09T07:31:01;97182.38;;;17.76;100.00
29045;BME280;16133;49.486;12.176;2022-09-09T07:33:31;97185.06;;;17.46;100.00
29045;BME280;16133;49.486;12.176;2022-09-09T07:36:21;97184.16;;;17.22;100.00
29045;BME280;16133;49.486;12.176;2022-09-09T07:38:49;97190.13;;;17.06;100.00
29045;BME280;16133;49.486;12.176;2022-09-09T07:41:19;97198.94;;;16.95;100.00
29045;BME280;16133;49.486;12.176;2022-09-09T07:43:46;97196.78;;;16.85;100.00
29045;BME280;16133;49.486;12.176;2022-09-09T07:46:14;97220.16;;;16.78;100.00
29045;BME280;16133;49.486;12.176;2022-09-09T07:48:44;97214.72;;;16.66;100.00
29045;BME280;16133;49.486;12.176;2022-09-09T07:51:13;97209.31;;;16.48;100.00
29045;BME280;16133;49.486;12.176;2022-09-09T07:53:42;97213.59;;;16.31;100.00
29045;BME280;16133;49.486;12.176;2022-09-09T07:56:10;97211.66;;;16.20;100.00
29045;BME280;16133;49.486;12.176;2022-09-09T07:58:38;97209.56;;;16.22;100.00
29045;BME280;16133;49.486;12.176;2022-09-09T08:03:33;97212.72;;;16.37;100.00
29045;BME280;16133;49.486;12.176;2022-09-09T08:06:07;97217.69;;;16.58;100.00
29045;BME280;16133;49.486;12.176;2022-09-09T08:08:34;97230.34;;;16.88;100.00
29045;BME280;16133;49.486;12.176;2022-09-09T08:11:11;97230.66;;;17.16;100.00
29045;BME280;16133;49.486;12.176;2022-09-09T08:13:39;97226.06;;;17.35;100.00
29045;BME280;16133;49.486;12.176;2022-09-09T08:16:10;97218.72;;;17.60;100.00
29045;BME280;16133;49.486;12.176;2022-09-09T08:18:36;97225.66;;;17.79;100.00
29045;BME280;16133;49.486;12.176;2022-09-09T08:21:11;97227.84;;;18.12;100.00
29045;BME280;16133;49.486;12.176;2022-09-09T08:23:42;97223.06;;;18.49;100.00
29045;BME280;16133;49.486;12.176;2022-09-09T08:26:21;97218.88;;;18.88;100.00
29045;BME280;16133;49.486;12.176;2022-09-09T08:28:49;97214.81;;;19.14;99.66
29045;BME280;16133;49.486;12.176;2022-09-09T08:31:33;97223.53;;;19.32;98.08
29045;BME280;16133;49.486;12.176;2022-09-09T08:33:59;97218.47;;;19.47;95.48
29045;BME280;16133;49.486;12.176;2022-09-09T08:36:26;97220.41;;;19.64;95.20
29045;BME280;16133;49.486;12.176;2022-09-09T08:38:54;97233.31;;;19.78;93.71
29045;BME280;16133;49.486;12.176;2022-09-09T08:58:02;97250.19;;;20.69;86.89
29045;BME280;16133;49.486;12.176;2022-09-09T09:00:40;97246.19;;;20.71;86.85
29045;BME280;16133;49.486;12.176;2022-09-09T09:05:44;97241.69;;;20.77;87.23
29045;BME280;16133;49.486;12.176;2022-09-09T09:10:46;97232.28;;;21.01;84.85
29045;BME280;16133;49.486;12.176;2022-09-09T09:13:41;97241.94;;;21.14;83.91
29045;BME280;16133;49.486;12.176;2022-09-09T09:16:25;97236.66;;;21.24;83.02
29045;BME280;16133;49.486;12.176;2022-09-09T09:18:52;97242.63;;;21.26;82.13
29045;BME280;16133;49.486;12.176;2022-09-09T09:21:42;97248.53;;;21.23;83.24
29045;BME280;16133;49.486;12.176;2022-09-09T09:24:21;97235.25;;;20.99;84.03
29045;BME280;16133;49.486;12.176;2022-09-09T09:26:49;97233.28;;;20.73;84.46
29045;BME280;16133;49.486;12.176;2022-09-09T09:29:17;97234.38;;;20.39;86.21
29045;BME280;16133;49.486;12.176;2022-09-09T09:31:56;97233.50;;;20.05;87.41
29045;BME280;16133;49.486;12.176;2022-09-09T09:34:27;97230.81;;;19.88;89.49
29045;BME280;16133;49.486;12.176;2022-09-09T09:36:56;97229.41;;;19.86;90.91
29045;BME280;16133;49.486;12.176;2022-09-09T09:39:27;97217.97;;;19.79;90.71
29045;BME280;16133;49.486;12.176;2022-09-09T09:41:53;97230.56;;;19.73;93.89
29045;BME280;16133;49.486;12.176;2022-09-09T09:46:53;97228.09;;;19.43;92.26
29045;BME280;16133;49.486;12.176;2022-09-09T09:49:18;97225.38;;;19.43;91.99
29045;BME280;16133;49.486;12.176;2022-09-09T09:51:44;97221.59;;;19.56;92.40
29045;BME280;16133;49.486;12.176;2022-09-09T09:56:39;97201.34;;;19.82;92.39
29045;BME280;16133;49.486;12.176;2022-09-09T09:59:05;97213.25;;;19.86;91.91
29045;BME280;16133;49.486;12.176;2022-09-09T10:01:32;97208.88;;;19.96;92.55
29045;BME280;16133;49.486;12.176;2022-09-09T10:04:22;97215.41;;;20.17;90.86
29045;BME280;16133;49.486;12.176;2022-09-09T10:06:51;97208.78;;;20.25;89.13
29045;BME280;16133;49.486;12.176;2022-09-09T10:09:25;97207.72;;;20.26;87.96
29045;BME280;16133;49.486;12.176;2022-09-09T10:17:49;97198.06;;;19.80;88.19
29045;BME280;16133;49.486;12.176;2022-09-09T10:20:35;97193.78;;;19.50;90.01
29045;BME280;16133;49.486;12.176;2022-09-09T10:34:35;97191.50;;;19.31;88.41
29045;BME280;16133;49.486;12.176;2022-09-09T10:40:33;97188.56;;;19.04;90.60
29045;BME280;16133;49.486;12.176;2022-09-09T10:51:48;97183.00;;;19.22;90.03
29045;BME280;16133;49.486;12.176;2022-09-09T10:57:20;97179.22;;;19.35;89.64
29045;BME280;16133;49.486;12.176;2022-09-09T10:59:52;97180.72;;;19.42;87.41
29045;BME280;16133;49.486;12.176;2022-09-09T11:02:33;97175.91;;;19.44;84.25
29045;BME280;16133;49.486;12.176;2022-09-09T11:05:03;97170.13;;;19.52;83.91
29045;BME280;16133;49.486;12.176;2022-09-09T11:08:03;97173.41;;;19.54;85.38
29045;BME280;16133;49.486;12.176;2022-09-09T11:10:39;97170.25;;;19.58;85.01
29045;BME280;16133;49.486;12.176;2022-09-09T11:13:14;97160.63;;;19.62;84.13
29045;BME280;16133;49.486;12.176;2022-09-09T11:15:53;97160.53;;;19.56;84.09
29045;BME280;16133;49.486;12.176;2022-09-09T11:18:23;97160.28;;;19.58;82.50
29045;BME280;16133;49.486;12.176;2022-09-09T11:20:52;97158.06;;;19.55;82.22
29045;BME280;16133;49.486;12.176;2022-09-09T11:23:30;97159.31;;;19.64;82.25
29045;BME280;16133;49.486;12.176;2022-09-09T11:26:02;97155.56;;;19.65;82.46
29045;BME280;16133;49.486;12.176;2022-09-09T11:28:56;97159.63;;;19.68;82.98
29045;BME280;16133;49.486;12.176;2022-09-09T11:42:25;97150.09;;;19.77;81.39
29045;BME280;16133;49.486;12.176;2022-09-09T11:44:51;97146.75;;;19.86;81.66
29045;BME280;16133;49.486;12.176;2022-09-09T11:47:26;97152.00;;;19.93;80.78
29045;BME280;16133;49.486;12.176;2022-09-09T11:50:36;97151.25;;;20.14;78.95
29045;BME280;16133;49.486;12.176;2022-09-09T11:53:17;97145.84;;;20.14;77.95
29045;BME280;16133;49.486;12.176;2022-09-09T11:55:46;97144.53;;;20.17;75.66
29045;BME280;16133;49.486;12.176;2022-09-09T12:00:42;97150.16;;;20.48;75.23
29045;BME280;16133;49.486;12.176;2022-09-09T12:05:53;97141.41;;;20.58;74.31
29045;BME280;16133;49.486;12.176;2022-09-09T12:08:27;97138.94;;;20.57;73.43
29045;BME280;16133;49.486;12.176;2022-09-09T12:10:55;97133.91;;;20.43;73.37
29045;BME280;16133;49.486;12.176;2022-09-09T12:13:26;97132.09;;;20.49;73.67
29045;BME280;16133;49.486;12.176;2022-09-09T12:15:54;97130.66;;;20.63;72.13
29045;BME280;16133;49.486;12.176;2022-09-09T12:18:37;97129.88;;;20.84;67.49
29045;BME280;16133;49.486;12.176;2022-09-09T12:24:05;97109.47;;;21.69;66.40
29045;BME280;16133;49.486;12.176;2022-09-09T12:33:01;97105.00;;;21.84;64.12
29045;BME280;16133;49.486;12.176;2022-09-09T12:35:28;97091.78;;;21.56;64.87
29045;BME280;16133;49.486;12.176;2022-09-09T12:37:58;97090.75;;;21.30;65.41
29045;BME280;16133;49.486;12.176;2022-09-09T12:40:26;97082.94;;;21.07;65.54
29045;BME280;16133;49.486;12.176;2022-09-09T12:42:52;97085.13;;;21.10;65.02
29045;BME280;16133;49.486;12.176;2022-09-09T12:45:24;97077.59;;;21.12;63.99
29045;BME280;16133;49.486;12.176;2022-09-09T12:48:15;97076.97;;;21.32;63.33
29045;BME280;16133;49.486;12.176;2022-09-09T12:53:22;97077.38;;;22.09;60.16
29045;BME280;16133;49.486;12.176;2022-09-09T12:55:59;97062.25;;;22.13;59.04
29045;BME280;16133;49.486;12.176;2022-09-09T12:58:26;97067.81;;;21.97;57.61
29045;BME280;16133;49.486;12.176;2022-09-09T13:00:54;97072.78;;;21.73;59.51
29045;BME280;16133;49.486;12.176;2022-09-09T13:03:23;97065.91;;;21.60;60.55
29045;BME280;16133;49.486;12.176;2022-09-09T13:05:50;97069.31;;;21.51;61.48
29045;BME280;16133;49.486;12.176;2022-09-09T13:08:17;97070.91;;;21.46;60.75
29045;BME280;16133;49.486;12.176;2022-09-09T13:13:38;97061.75;;;21.16;60.31
29045;BME280;16133;49.486;12.176;2022-09-09T13:16:06;97075.38;;;21.09;61.08
29045;BME280;16133;49.486;12.176;2022-09-09T13:18:40;97068.81;;;21.22;62.76
29045;BME280;16133;49.486;12.176;2022-09-09T13:21:06;97074.44;;;21.47;62.28
29045;BME280;16133;49.486;12.176;2022-09-09T13:23:36;97071.84;;;21.62;62.06
29045;BME280;16133;49.486;12.176;2022-09-09T13:26:04;97067.28;;;21.63;61.71
29045;BME280;16133;49.486;12.176;2022-09-09T13:28:31;97066.06;;;21.49;60.81
29045;BME280;16133;49.486;12.176;2022-09-09T13:33:33;97057.84;;;21.33;62.66
29045;BME280;16133;49.486;12.176;2022-09-09T13:38:30;97039.47;;;21.30;61.78
29045;BME280;16133;49.486;12.176;2022-09-09T13:41:02;97044.88;;;21.30;63.47
29045;BME280;16133;49.486;12.176;2022-09-09T13:43:43;97044.44;;;21.43;63.85
29045;BME280;16133;49.486;12.176;2022-09-09T13:48:57;97042.72;;;22.01;63.53
29045;BME280;16133;49.486;12.176;2022-09-09T13:51:39;97046.03;;;22.13;63.33
29045;BME280;16133;49.486;12.176;2022-09-09T13:54:09;97051.97;;;22.10;63.47
29045;BME280;16133;49.486;12.176;2022-09-09T13:56:36;97049.31;;;22.15;63.93
29045;BME280;16133;49.486;12.176;2022-09-09T13:59:03;97053.09;;;22.14;64.44
29045;BME280;16133;49.486;12.176;2022-09-09T14:01:29;97048.72;;;22.08;63.41
29045;BME280;16133;49.486;12.176;2022-09-09T14:03:55;97048.13;;;22.01;64.23
29045;BME280;16133;49.486;12.176;2022-09-09T14:06:21;97053.81;;;22.00;64.67
29045;BME280;16133;49.486;12.176;2022-09-09T14:08:49;97061.63;;;22.01;64.95
29045;BME280;16133;49.486;12.176;2022-09-09T14:11:16;97053.53;;;22.01;64.83
29045;BME280;16133;49.486;12.176;2022-09-09T14:13:41;97057.66;;;22.14;65.73
29045;BME280;16133;49.486;12.176;2022-09-09T14:16:07;97061.66;;;22.53;64.62
29045;BME280;16133;49.486;12.176;2022-09-09T14:18:32;97057.22;;;22.84;63.71
29045;BME280;16133;49.486;12.176;2022-09-09T14:20:59;97056.72;;;23.02;61.84
29045;BME280;16133;49.486;12.176;2022-09-09T14:23:24;97052.38;;;23.01;60.97
29045;BME280;16133;49.486;12.176;2022-09-09T14:25:50;97053.69;;;22.88;61.17
29045;BME280;16133;49.486;12.176;2022-09-09T14:28:16;97051.25;;;22.82;61.31
29045;BME280;16133;49.486;12.176;2022-09-09T14:30:43;97038.97;;;22.59;62.10
29045;BME280;16133;49.486;12.176;2022-09-09T14:33:14;97053.56;;;22.53;63.44
29045;BME280;16133;49.486;12.176;2022-09-09T14:35:40;97061.94;;;22.62;63.32
29045;BME280;16133;49.486;12.176;2022-09-09T14:38:06;97061.53;;;22.80;62.87
29045;BME280;16133;49.486;12.176;2022-09-09T14:40:34;97060.19;;;22.82;63.41
29045;BME280;16133;49.486;12.176;2022-09-09T14:43:00;97046.34;;;22.69;63.44
29045;BME280;16133;49.486;12.176;2022-09-09T14:45:32;97037.59;;;22.52;63.23
29045;BME280;16133;49.486;12.176;2022-09-09T14:47:57;97034.84;;;22.42;63.28
29045;BME280;16133;49.486;12.176;2022-09-09T14:50:24;97047.09;;;22.59;63.92
29045;BME280;16133;49.486;12.176;2022-09-09T14:52:49;97059.88;;;22.69;63.86
29045;BME280;16133;49.486;12.176;2022-09-09T14:55:16;97067.13;;;22.63;63.93
29045;BME280;16133;49.486;12.176;2022-09-09T14:57:41;97066.22;;;22.48;53.30
29045;BME280;16133;49.486;12.176;2022-09-09T15:00:08;97070.03;;;22.00;51.45
29045;BME280;16133;49.486;12.176;2022-09-09T15:02:34;97070.38;;;21.44;51.38
29045;BME280;16133;49.486;12.176;2022-09-09T15:05:00;97056.78;;;20.86;51.17
29045;BME280;16133;49.486;12.176;2022-09-09T15:07:25;97066.28;;;20.07;53.28
29045;BME280;16133;49.486;12.176;2022-09-09T15:09:51;97067.22;;;19.45;55.47
29045;BME280;16133;49.486;12.176;2022-09-09T15:12:18;97077.81;;;19.07;56.94
29045;BME280;16133;49.486;12.176;2022-09-09T15:14:44;97098.25;;;18.80;57.98
29045;BME280;16133;49.486;12.176;2022-09-09T15:17:10;97089.69;;;18.54;58.86
29045;BME280;16133;49.486;12.176;2022-09-09T15:19:36;97067.63;;;18.29;59.17
29045;BME280;16133;49.486;12.176;2022-09-09T15:22:02;97074.78;;;18.12;59.93
29045;BME280;16133;49.486;12.176;2022-09-09T15:24:28;97077.13;;;18.08;61.28